sensor_id;sensor_type;location;lat;lon;timestamp;P1;durP1;ratioP1;P2;durP2;ratioP2
1380;SDS011;684;48.342;10.096;2023-09-12T00:00:03;18.47;;;12.80;;
1380;SDS011;684;48.342;10.096;2023-09-12T00:02:31;17.33;;;12.00;;
1380;SDS011;684;48.342;10.096;2023-09-12T00:04:57;14.90;;;12.80;;
1380;SDS011;684;48.342;10.096;2023-09-12T00:07:24;21.87;;;12.37;;
1380;SDS011;684;48.342;10.096;2023-09-12T00:09:51;20.67;;;13.63;;
1380;SDS011;684;48.342;10.096;2023-09-12T00:12:18;16.93;;;13.37;;
1380;SDS011;684;48.342;10.096;2023-09-12T00:14:49;18.53;;;13.03;;
1380;SDS011;684;48.342;10.096;2023-09-12T00:17:17;15.50;;;11.30;;
1380;SDS011;684;48.342;10.096;2023-09-12T00:19:44;15.13;;;11.80;;
1380;SDS011;684;48.342;10.096;2023-09-12T00:22:10;17.00;;;12.10;;
1380;SDS011;684;48.342;10.096;2023-09-12T00:24:37;17.33;;;12.47;;
1380;SDS011;684;48.342;10.096;2023-09-12T00:27:04;17.73;;;11.73;;
1380;SDS011;684;48.342;10.096;2023-09-12T00:29:30;16.80;;;11.20;;
1380;SDS011;684;48.342;10.096;2023-09-12T00:31:57;16.50;;;11.43;;
1380;SDS011;684;48.342;10.096;2023-09-12T00:34:25;22.63;;;13.10;;
1380;SDS011;684;48.342;10.096;2023-09-12T00:36:52;14.73;;;10.70;;
1380;SDS011;684;48.342;10.096;2023-09-12T00:39:19;18.60;;;10.23;;
1380;SDS011;684;48.342;10.096;2023-09-12T00:41:45;18.40;;;10.67;;
1380;SDS011;684;48.342;10.096;2023-09-12T00:44:12;15.60;;;10.90;;
1380;SDS011;684;48.342;10.096;2023-09-12T00:46:39;16.50;;;11.10;;
1380;SDS011;684;48.342;10.096;2023-09-12T00:49:06;14.40;;;10.90;;
1380;SDS011;684;48.342;10.096;2023-09-12T00:51:36;19.20;;;10.57;;
1380;SDS011;684;48.342;10.096;2023-09-12T00:54:03;15.90;;;10.63;;
1380;SDS011;684;48.342;10.096;2023-09-12T00:56:30;15.73;;;11.70;;
1380;SDS011;684;48.342;10.096;2023-09-12T00:58:57;14.90;;;12.30;;
1380;SDS011;684;48.342;10.096;2023-09-12T01:01:24;16.17;;;12.23;;
1380;SDS011;684;48.342;10.096;2023-09-12T01:03:51;18.90;;;13.00;;
1380;SDS011;684;48.342;10.096;2023-09-12T01:06:19;16.70;;;13.60;;
1380;SDS011;684;48.342;10.096;2023-09-12T01:08:51;20.23;;;13.40;;
1380;SDS011;684;48.342;10.096;2023-09-12T01:11:18;19.80;;;14.27;;
1380;SDS011;684;48.342;10.096;2023-09-12T01:13:46;17.93;;;15.40;;
1380;SDS011;684;48.342;10.096;2023-09-12T01:16:13;17.97;;;15.97;;
1380;SDS011;684;48.342;10.096;2023-09-12T01:18:40;18.87;;;15.87;;
1380;SDS011;684;48.342;10.096;2023-09-12T01:21:14;19.63;;;17.10;;
1380;SDS011;684;48.342;10.096;2023-09-12T01:24:04;21.60;;;15.70;;
1380;SDS011;684;48.342;10.096;2023-09-12T01:26:45;17.70;;;14.43;;
1380;SDS011;684;48.342;10.096;2023-09-12T01:29:21;17.30;;;15.13;;
1380;SDS011;684;48.342;10.096;2023-09-12T01:31:50;17.50;;;15.10;;
1380;SDS011;684;48.342;10.096;2023-09-12T01:34:19;16.23;;;14.53;;
1380;SDS011;684;48.342;10.096;2023-09-12T01:36:46;16.60;;;13.70;;
1380;SDS011;684;48.342;10.096;2023-09-12T01:39:13;18.27;;;14.93;;
1380;SDS011;684;48.342;10.096;2023-09-12T01:41:40;16.20;;;14.50;;
1380;SDS011;684;48.342;10.096;2023-09-12T01:44:10;19.50;;;15.40;;
1380;SDS011;684;48.342;10.096;2023-09-12T01:46:40;16.33;;;14.27;;
1380;SDS011;684;48.342;10.096;2023-09-12T01:49:09;20.23;;;14.77;;
1380;SDS011;684;48.342;10.096;2023-09-12T01:51:37;20.50;;;16.83;;
1380;SDS011;684;48.342;10.096;2023-09-12T01:54:04;20.03;;;15.80;;
1380;SDS011;684;48.342;10.096;2023-09-12T01:56:32;21.10;;;15.70;;
1380;SDS011;684;48.342;10.096;2023-09-12T01:58:59;21.60;;;17.47;;
1380;SDS011;684;48.342;10.096;2023-09-12T02:01:26;20.37;;;17.30;;
1380;SDS011;684;48.342;10.096;2023-09-12T02:03:54;16.13;;;14.50;;
1380;SDS011;684;48.342;10.096;2023-09-12T02:06:21;17.63;;;15.73;;
1380;SDS011;684;48.342;10.096;2023-09-12T02:08:48;18.83;;;16.83;;
1380;SDS011;684;48.342;10.096;2023-09-12T02:11:15;17.27;;;15.57;;
1380;SDS011;684;48.342;10.096;2023-09-12T02:13:41;16.90;;;15.10;;
1380;SDS011;684;48.342;10.096;2023-09-12T02:16:08;19.03;;;15.70;;
1380;SDS011;684;48.342;10.096;2023-09-12T02:18:35;18.07;;;15.23;;
1380;SDS011;684;48.342;10.096;2023-09-12T02:21:03;17.30;;;15.50;;
1380;SDS011;684;48.342;10.096;2023-09-12T02:23:29;20.47;;;16.50;;
1380;SDS011;684;48.342;10.096;2023-09-12T02:25:56;18.33;;;16.30;;
1380;SDS011;684;48.342;10.096;2023-09-12T02:28:23;20.90;;;16.10;;
1380;SDS011;684;48.342;10.096;2023-09-12T02:30:49;17.17;;;15.37;;
1380;SDS011;684;48.342;10.096;2023-09-12T02:33:16;21.50;;;17.10;;
1380;SDS011;684;48.342;10.096;2023-09-12T02:35:43;17.73;;;15.77;;
1380;SDS011;684;48.342;10.096;2023-09-12T02:38:11;18.77;;;16.93;;
1380;SDS011;684;48.342;10.096;2023-09-12T02:40:38;18.20;;;16.20;;
1380;SDS011;684;48.342;10.096;2023-09-12T02:43:04;17.87;;;16.00;;
1380;SDS011;684;48.342;10.096;2023-09-12T02:45:31;19.17;;;16.33;;
1380;SDS011;684;48.342;10.096;2023-09-12T02:47:58;17.87;;;15.40;;
1380;SDS011;684;48.342;10.096;2023-09-12T02:50:24;18.60;;;14.97;;
1380;SDS011;684;48.342;10.096;2023-09-12T02:52:51;18.37;;;15.60;;
1380;SDS011;684;48.342;10.096;2023-09-12T02:55:19;18.07;;;15.87;;
1380;SDS011;684;48.342;10.096;2023-09-12T02:57:46;18.30;;;16.40;;
1380;SDS011;684;48.342;10.096;2023-09-12T03:00:13;18.90;;;16.50;;
1380;SDS011;684;48.342;10.096;2023-09-12T03:02:39;18.97;;;17.03;;
1380;SDS011;684;48.342;10.096;2023-09-12T03:05:06;21.07;;;16.93;;
1380;SDS011;684;48.342;10.096;2023-09-12T03:07:34;18.60;;;16.60;;
1380;SDS011;684;48.342;10.096;2023-09-12T03:10:00;19.50;;;17.00;;
1380;SDS011;684;48.342;10.096;2023-09-12T03:12:30;18.17;;;16.27;;
1380;SDS011;684;48.342;10.096;2023-09-12T03:14:56;19.67;;;15.53;;
1380;SDS011;684;48.342;10.096;2023-09-12T03:17:23;18.30;;;16.50;;
1380;SDS011;684;48.342;10.096;2023-09-12T03:19:50;19.40;;;17.40;;
1380;SDS011;684;48.342;10.096;2023-09-12T03:22:16;18.03;;;16.23;;
1380;SDS011;684;48.342;10.096;2023-09-12T03:24:43;19.70;;;16.63;;
1380;SDS011;684;48.342;10.096;2023-09-12T03:27:11;17.30;;;15.50;;
1380;SDS011;684;48.342;10.096;2023-09-12T03:29:39;19.10;;;17.10;;
1380;SDS011;684;48.342;10.096;2023-09-12T03:32:05;19.43;;;17.40;;
1380;SDS011;684;48.342;10.096;2023-09-12T03:34:32;20.13;;;16.63;;
1380;SDS011;684;48.342;10.096;2023-09-12T03:36:59;19.60;;;16.23;;
1380;SDS011;684;48.342;10.096;2023-09-12T03:39:25;21.77;;;16.93;;
1380;SDS011;684;48.342;10.096;2023-09-12T03:41:52;20.83;;;16.93;;
1380;SDS011;684;48.342;10.096;2023-09-12T03:44:19;18.07;;;15.87;;
1380;SDS011;684;48.342;10.096;2023-09-12T03:46:47;19.30;;;17.10;;
1380;SDS011;684;48.342;10.096;2023-09-12T03:49:13;19.90;;;17.90;;
1380;SDS011;684;48.342;10.096;2023-09-12T03:51:40;19.30;;;17.20;;
1380;SDS011;684;48.342;10.096;2023-09-12T03:54:07;23.07;;;16.33;;
1380;SDS011;684;48.342;10.096;2023-09-12T03:56:33;19.10;;;15.80;;
1380;SDS011;684;48.342;10.096;2023-09-12T03:59:00;20.37;;;17.77;;
1380;SDS011;684;48.342;10.096;2023-09-12T04:01:28;18.23;;;16.33;;
1380;SDS011;684;48.342;10.096;2023-09-12T04:03:56;20.90;;;16.93;;
1380;SDS011;684;48.342;10.096;2023-09-12T04:06:22;19.00;;;17.17;;
1380;SDS011;684;48.342;10.096;2023-09-12T04:08:49;20.67;;;16.87;;
1380;SDS011;684;48.342;10.096;2023-09-12T04:11:16;17.40;;;14.80;;
1380;SDS011;684;48.342;10.096;2023-09-12T04:13:42;18.07;;;15.40;;
1380;SDS011;684;48.342;10.096;2023-09-12T04:16:09;17.70;;;15.83;;
1380;SDS011;684;48.342;10.096;2023-09-12T04:18:36;18.63;;;16.73;;
1380;SDS011;684;48.342;10.096;2023-09-12T04:21:04;18.50;;;16.50;;
1380;SDS011;684;48.342;10.096;2023-09-12T04:23:31;20.20;;;15.43;;
1380;SDS011;684;48.342;10.096;2023-09-12T04:25:58;17.47;;;15.67;;
1380;SDS011;684;48.342;10.096;2023-09-12T04:28:28;17.77;;;15.93;;
1380;SDS011;684;48.342;10.096;2023-09-12T04:31:00;18.73;;;16.53;;
1380;SDS011;684;48.342;10.096;2023-09-12T04:33:28;20.10;;;16.77;;
1380;SDS011;684;48.342;10.096;2023-09-12T04:35:56;17.50;;;15.60;;
1380;SDS011;684;48.342;10.096;2023-09-12T04:38:25;20.53;;;16.47;;
1380;SDS011;684;48.342;10.096;2023-09-12T04:40:53;19.07;;;17.03;;
1380;SDS011;684;48.342;10.096;2023-09-12T04:43:20;21.57;;;17.20;;
1380;SDS011;684;48.342;10.096;2023-09-12T04:45:47;18.90;;;16.90;;
1380;SDS011;684;48.342;10.096;2023-09-12T04:48:14;17.40;;;15.60;;
1380;SDS011;684;48.342;10.096;2023-09-12T04:50:41;19.07;;;16.30;;
1380;SDS011;684;48.342;10.096;2023-09-12T04:53:08;17.40;;;15.60;;
1380;SDS011;684;48.342;10.096;2023-09-12T04:55:36;20.53;;;16.90;;
1380;SDS011;684;48.342;10.096;2023-09-12T04:58:04;19.90;;;17.70;;
1380;SDS011;684;48.342;10.096;2023-09-12T05:00:31;19.47;;;17.33;;
1380;SDS011;684;48.342;10.096;2023-09-12T05:02:57;19.27;;;16.27;;
1380;SDS011;684;48.342;10.096;2023-09-12T05:05:24;19.17;;;17.27;;
1380;SDS011;684;48.342;10.096;2023-09-12T05:07:51;19.63;;;17.40;;
1380;SDS011;684;48.342;10.096;2023-09-12T05:10:17;20.23;;;18.00;;
1380;SDS011;684;48.342;10.096;2023-09-12T05:12:46;20.70;;;17.07;;
1380;SDS011;684;48.342;10.096;2023-09-12T05:15:12;17.10;;;15.30;;
1380;SDS011;684;48.342;10.096;2023-09-12T05:17:39;16.50;;;14.90;;
1380;SDS011;684;48.342;10.096;2023-09-12T05:20:06;18.53;;;16.13;;
1380;SDS011;684;48.342;10.096;2023-09-12T05:22:34;19.13;;;16.00;;
1380;SDS011;684;48.342;10.096;2023-09-12T05:25:01;17.83;;;15.97;;
1380;SDS011;684;48.342;10.096;2023-09-12T05:27:27;16.43;;;14.73;;
1380;SDS011;684;48.342;10.096;2023-09-12T05:29:56;16.60;;;14.90;;
1380;SDS011;684;48.342;10.096;2023-09-12T05:32:23;19.43;;;15.60;;
1380;SDS011;684;48.342;10.096;2023-09-12T05:34:49;15.83;;;13.90;;
1380;SDS011;684;48.342;10.096;2023-09-12T05:37:16;19.47;;;15.10;;
1380;SDS011;684;48.342;10.096;2023-09-12T05:39:44;17.40;;;14.40;;
1380;SDS011;684;48.342;10.096;2023-09-12T05:42:10;18.93;;;14.80;;
1380;SDS011;684;48.342;10.096;2023-09-12T05:44:37;16.77;;;14.50;;
1380;SDS011;684;48.342;10.096;2023-09-12T05:47:05;16.10;;;14.40;;
1380;SDS011;684;48.342;10.096;2023-09-12T05:49:32;18.67;;;15.80;;
1380;SDS011;684;48.342;10.096;2023-09-12T05:51:59;16.73;;;14.50;;
1380;SDS011;684;48.342;10.096;2023-09-12T05:54:27;20.43;;;15.33;;
1380;SDS011;684;48.342;10.096;2023-09-12T05:56:54;16.97;;;14.63;;
1380;SDS011;684;48.342;10.096;2023-09-12T05:59:21;18.80;;;16.83;;
1380;SDS011;684;48.342;10.096;2023-09-12T06:01:47;19.97;;;16.63;;
1380;SDS011;684;48.342;10.096;2023-09-12T06:04:16;20.90;;;15.80;;
1380;SDS011;684;48.342;10.096;2023-09-12T06:06:42;16.27;;;14.57;;
1380;SDS011;684;48.342;10.096;2023-09-12T06:09:09;18.23;;;15.07;;
1380;SDS011;684;48.342;10.096;2023-09-12T06:11:39;17.10;;;14.73;;
1380;SDS011;684;48.342;10.096;2023-09-12T06:14:09;16.90;;;14.90;;
1380;SDS011;684;48.342;10.096;2023-09-12T06:16:36;21.50;;;13.93;;
1380;SDS011;684;48.342;10.096;2023-09-12T06:19:02;20.00;;;14.30;;
1380;SDS011;684;48.342;10.096;2023-09-12T06:21:30;19.37;;;14.80;;
1380;SDS011;684;48.342;10.096;2023-09-12T06:24:08;17.93;;;14.90;;
1380;SDS011;684;48.342;10.096;2023-09-12T06:26:36;17.43;;;14.93;;
1380;SDS011;684;48.342;10.096;2023-09-12T06:29:03;16.23;;;14.50;;
1380;SDS011;684;48.342;10.096;2023-09-12T06:31:30;15.10;;;13.40;;
1380;SDS011;684;48.342;10.096;2023-09-12T06:33:57;17.10;;;13.30;;
1380;SDS011;684;48.342;10.096;2023-09-12T06:36:24;13.30;;;11.90;;
1380;SDS011;684;48.342;10.096;2023-09-12T06:38:52;14.57;;;13.07;;
1380;SDS011;684;48.342;10.096;2023-09-12T06:41:19;14.60;;;13.10;;
1380;SDS011;684;48.342;10.096;2023-09-12T06:43:46;13.80;;;12.40;;
1380;SDS011;684;48.342;10.096;2023-09-12T06:46:13;17.87;;;12.90;;
1380;SDS011;684;48.342;10.096;2023-09-12T06:48:42;14.33;;;12.03;;
1380;SDS011;684;48.342;10.096;2023-09-12T06:51:09;12.70;;;11.40;;
1380;SDS011;684;48.342;10.096;2023-09-12T06:53:36;14.40;;;12.37;;
1380;SDS011;684;48.342;10.096;2023-09-12T06:56:04;17.07;;;11.37;;
1380;SDS011;684;48.342;10.096;2023-09-12T06:58:31;13.30;;;11.00;;
1380;SDS011;684;48.342;10.096;2023-09-12T07:01:01;14.23;;;11.07;;
1380;SDS011;684;48.342;10.096;2023-09-12T07:03:29;13.00;;;11.80;;
1380;SDS011;684;48.342;10.096;2023-09-12T07:05:56;12.63;;;11.33;;
1380;SDS011;684;48.342;10.096;2023-09-12T07:08:23;12.63;;;11.37;;
1380;SDS011;684;48.342;10.096;2023-09-12T07:10:50;12.93;;;11.63;;
1380;SDS011;684;48.342;10.096;2023-09-12T07:13:21;11.67;;;10.47;;
1380;SDS011;684;48.342;10.096;2023-09-12T07:15:47;12.20;;;10.50;;
1380;SDS011;684;48.342;10.096;2023-09-12T07:18:14;12.83;;;10.20;;
1380;SDS011;684;48.342;10.096;2023-09-12T07:20:41;12.13;;;10.17;;
1380;SDS011;684;48.342;10.096;2023-09-12T07:23:07;11.33;;;10.30;;
1380;SDS011;684;48.342;10.096;2023-09-12T07:25:37;11.30;;;10.10;;
1380;SDS011;684;48.342;10.096;2023-09-12T07:28:05;11.87;;;10.43;;
1380;SDS011;684;48.342;10.096;2023-09-12T07:30:33;15.50;;;11.23;;
1380;SDS011;684;48.342;10.096;2023-09-12T07:33:00;12.33;;;10.27;;
1380;SDS011;684;48.342;10.096;2023-09-12T07:35:28;10.60;;;9.60;;
1380;SDS011;684;48.342;10.096;2023-09-12T07:37:55;14.90;;;9.03;;
1380;SDS011;684;48.342;10.096;2023-09-12T07:40:22;10.73;;;8.97;;
1380;SDS011;684;48.342;10.096;2023-09-12T07:42:49;10.37;;;9.30;;
1380;SDS011;684;48.342;10.096;2023-09-12T07:45:15;12.13;;;8.83;;
1380;SDS011;684;48.342;10.096;2023-09-12T07:47:43;11.47;;;10.40;;
1380;SDS011;684;48.342;10.096;2023-09-12T07:50:10;11.00;;;9.50;;
1380;SDS011;684;48.342;10.096;2023-09-12T07:52:37;14.80;;;9.67;;
1380;SDS011;684;48.342;10.096;2023-09-12T07:55:04;13.40;;;9.73;;
1380;SDS011;684;48.342;10.096;2023-09-12T07:57:31;9.07;;;8.17;;
1380;SDS011;684;48.342;10.096;2023-09-12T07:59:59;10.30;;;9.40;;
1380;SDS011;684;48.342;10.096;2023-09-12T08:02:26;12.23;;;9.30;;
1380;SDS011;684;48.342;10.096;2023-09-12T08:04:54;11.40;;;9.50;;
1380;SDS011;684;48.342;10.096;2023-09-12T08:07:20;9.77;;;8.80;;
1380;SDS011;684;48.342;10.096;2023-09-12T08:09:48;10.63;;;9.03;;
1380;SDS011;684;48.342;10.096;2023-09-12T08:12:16;9.70;;;8.63;;
1380;SDS011;684;48.342;10.096;2023-09-12T08:14:43;11.87;;;9.13;;
1380;SDS011;684;48.342;10.096;2023-09-12T08:17:10;10.50;;;9.43;;
1380;SDS011;684;48.342;10.096;2023-09-12T08:19:37;10.17;;;8.90;;
1380;SDS011;684;48.342;10.096;2023-09-12T08:22:07;9.33;;;8.37;;
1380;SDS011;684;48.342;10.096;2023-09-12T08:24:35;10.10;;;8.87;;
1380;SDS011;684;48.342;10.096;2023-09-12T08:27:02;9.40;;;8.00;;
1380;SDS011;684;48.342;10.096;2023-09-12T08:29:29;9.87;;;8.87;;
1380;SDS011;684;48.342;10.096;2023-09-12T08:31:57;10.07;;;9.17;;
1380;SDS011;684;48.342;10.096;2023-09-12T08:34:24;10.80;;;9.67;;
1380;SDS011;684;48.342;10.096;2023-09-12T08:36:51;9.70;;;8.80;;
1380;SDS011;684;48.342;10.096;2023-09-12T08:39:25;11.03;;;9.83;;
1380;SDS011;684;48.342;10.096;2023-09-12T08:41:53;9.70;;;8.80;;
1380;SDS011;684;48.342;10.096;2023-09-12T08:44:20;10.50;;;8.33;;
1380;SDS011;684;48.342;10.096;2023-09-12T08:46:47;10.80;;;9.37;;
1380;SDS011;684;48.342;10.096;2023-09-12T08:49:14;9.20;;;8.27;;
1380;SDS011;684;48.342;10.096;2023-09-12T08:51:42;9.47;;;8.53;;
1380;SDS011;684;48.342;10.096;2023-09-12T08:54:09;9.70;;;8.60;;
1380;SDS011;684;48.342;10.096;2023-09-12T08:56:39;11.03;;;9.83;;
1380;SDS011;684;48.342;10.096;2023-09-12T08:59:07;10.63;;;9.30;;
1380;SDS011;684;48.342;10.096;2023-09-12T09:01:35;11.50;;;9.70;;
1380;SDS011;684;48.342;10.096;2023-09-12T09:04:03;10.73;;;9.03;;
1380;SDS011;684;48.342;10.096;2023-09-12T09:06:31;9.73;;;8.73;;
1380;SDS011;684;48.342;10.096;2023-09-12T09:09:02;15.70;;;10.10;;
1380;SDS011;684;48.342;10.096;2023-09-12T09:11:30;10.80;;;9.30;;
1380;SDS011;684;48.342;10.096;2023-09-12T09:13:58;11.30;;;10.13;;
1380;SDS011;684;48.342;10.096;2023-09-12T09:16:25;13.90;;;10.00;;
1380;SDS011;684;48.342;10.096;2023-09-12T09:18:53;11.40;;;10.37;;
1380;SDS011;684;48.342;10.096;2023-09-12T09:21:21;11.50;;;9.80;;
1380;SDS011;684;48.342;10.096;2023-09-12T09:23:50;16.80;;;10.20;;
1380;SDS011;684;48.342;10.096;2023-09-12T09:26:17;11.30;;;9.40;;
1380;SDS011;684;48.342;10.096;2023-09-12T09:28:44;9.87;;;8.87;;
1380;SDS011;684;48.342;10.096;2023-09-12T09:31:12;17.90;;;10.10;;
1380;SDS011;684;48.342;10.096;2023-09-12T09:33:39;11.03;;;9.93;;
1380;SDS011;684;48.342;10.096;2023-09-12T09:36:10;10.07;;;9.07;;
1380;SDS011;684;48.342;10.096;2023-09-12T09:38:37;13.53;;;10.20;;
1380;SDS011;684;48.342;10.096;2023-09-12T09:41:06;10.40;;;8.70;;
1380;SDS011;684;48.342;10.096;2023-09-12T09:43:33;12.60;;;9.17;;
1380;SDS011;684;48.342;10.096;2023-09-12T09:45:59;12.40;;;9.03;;
1380;SDS011;684;48.342;10.096;2023-09-12T09:48:28;10.53;;;8.53;;
1380;SDS011;684;48.342;10.096;2023-09-12T09:50:59;9.23;;;8.30;;
1380;SDS011;684;48.342;10.096;2023-09-12T09:53:27;12.40;;;9.53;;
1380;SDS011;684;48.342;10.096;2023-09-12T09:56:07;16.20;;;8.90;;
1380;SDS011;684;48.342;10.096;2023-09-12T09:58:35;11.10;;;8.63;;
1380;SDS011;684;48.342;10.096;2023-09-12T10:01:02;11.33;;;8.60;;
1380;SDS011;684;48.342;10.096;2023-09-12T10:03:34;10.83;;;9.67;;
1380;SDS011;684;48.342;10.096;2023-09-12T10:06:02;13.87;;;9.40;;
1380;SDS011;684;48.342;10.096;2023-09-12T10:08:31;10.60;;;9.37;;
1380;SDS011;684;48.342;10.096;2023-09-12T10:10:59;9.50;;;8.40;;
1380;SDS011;684;48.342;10.096;2023-09-12T10:13:27;12.10;;;9.40;;
1380;SDS011;684;48.342;10.096;2023-09-12T10:15:57;10.70;;;9.70;;
1380;SDS011;684;48.342;10.096;2023-09-12T10:18:26;10.73;;;9.27;;
1380;SDS011;684;48.342;10.096;2023-09-12T10:21:02;10.50;;;8.47;;
1380;SDS011;684;48.342;10.096;2023-09-12T10:23:36;10.33;;;9.33;;
1380;SDS011;684;48.342;10.096;2023-09-12T10:26:07;11.77;;;9.37;;
1380;SDS011;684;48.342;10.096;2023-09-12T10:28:36;12.87;;;9.10;;
1380;SDS011;684;48.342;10.096;2023-09-12T10:31:04;14.27;;;9.83;;
1380;SDS011;684;48.342;10.096;2023-09-12T10:33:32;9.80;;;8.80;;
1380;SDS011;684;48.342;10.096;2023-09-12T10:36:00;12.30;;;9.23;;
1380;SDS011;684;48.342;10.096;2023-09-12T10:38:29;11.60;;;10.50;;
1380;SDS011;684;48.342;10.096;2023-09-12T10:40:58;10.40;;;8.23;;
1380;SDS011;684;48.342;10.096;2023-09-12T10:43:26;13.63;;;7.93;;
1380;SDS011;684;48.342;10.096;2023-09-12T10:45:54;15.23;;;9.97;;
1380;SDS011;684;48.342;10.096;2023-09-12T10:48:22;10.13;;;8.33;;
1380;SDS011;684;48.342;10.096;2023-09-12T10:50:49;12.13;;;8.80;;
1380;SDS011;684;48.342;10.096;2023-09-12T10:53:17;9.50;;;8.50;;
1380;SDS011;684;48.342;10.096;2023-09-12T10:55:57;9.53;;;8.60;;
1380;SDS011;684;48.342;10.096;2023-09-12T10:58:25;11.53;;;7.90;;
1380;SDS011;684;48.342;10.096;2023-09-12T11:03:50;12.17;;;8.50;;
1380;SDS011;684;48.342;10.096;2023-09-12T11:06:20;8.10;;;7.40;;
1380;SDS011;684;48.342;10.096;2023-09-12T11:11:47;8.43;;;7.63;;
1380;SDS011;684;48.342;10.096;2023-09-12T11:14:14;8.73;;;7.93;;
1380;SDS011;684;48.342;10.096;2023-09-12T11:16:42;9.30;;;8.40;;
1380;SDS011;684;48.342;10.096;2023-09-12T11:19:16;9.50;;;8.60;;
1380;SDS011;684;48.342;10.096;2023-09-12T11:21:44;9.23;;;8.23;;
1380;SDS011;684;48.342;10.096;2023-09-12T11:24:12;8.43;;;7.57;;
1380;SDS011;684;48.342;10.096;2023-09-12T11:26:54;9.37;;;7.50;;
1380;SDS011;684;48.342;10.096;2023-09-12T11:29:26;8.53;;;7.63;;
1380;SDS011;684;48.342;10.096;2023-09-12T11:31:54;11.43;;;8.50;;
1380;SDS011;684;48.342;10.096;2023-09-12T11:34:26;12.97;;;7.70;;
1380;SDS011;684;48.342;10.096;2023-09-12T11:36:57;10.00;;;9.00;;
1380;SDS011;684;48.342;10.096;2023-09-12T11:39:25;9.77;;;8.70;;
1380;SDS011;684;48.342;10.096;2023-09-12T11:41:57;10.30;;;9.20;;
1380;SDS011;684;48.342;10.096;2023-09-12T11:44:24;11.13;;;8.53;;
1380;SDS011;684;48.342;10.096;2023-09-12T11:46:51;11.30;;;9.47;;
1380;SDS011;684;48.342;10.096;2023-09-12T11:49:19;13.00;;;8.57;;
1380;SDS011;684;48.342;10.096;2023-09-12T11:51:47;10.90;;;9.47;;
1380;SDS011;684;48.342;10.096;2023-09-12T11:54:15;11.70;;;9.00;;
1380;SDS011;684;48.342;10.096;2023-09-12T11:56:43;9.40;;;8.40;;
1380;SDS011;684;48.342;10.096;2023-09-12T11:59:11;10.70;;;9.60;;
1380;SDS011;684;48.342;10.096;2023-09-12T12:01:38;9.30;;;8.27;;
1380;SDS011;684;48.342;10.096;2023-09-12T12:04:05;10.20;;;8.50;;
1380;SDS011;684;48.342;10.096;2023-09-12T12:06:32;10.37;;;8.93;;
1380;SDS011;684;48.342;10.096;2023-09-12T12:09:00;10.40;;;8.57;;
1380;SDS011;684;48.342;10.096;2023-09-12T12:11:29;8.90;;;8.10;;
1380;SDS011;684;48.342;10.096;2023-09-12T12:13:56;9.57;;;7.80;;
1380;SDS011;684;48.342;10.096;2023-09-12T12:16:26;11.90;;;9.00;;
1380;SDS011;684;48.342;10.096;2023-09-12T12:18:52;10.70;;;8.67;;
1380;SDS011;684;48.342;10.096;2023-09-12T12:21:21;10.80;;;8.87;;
1380;SDS011;684;48.342;10.096;2023-09-12T12:23:56;14.33;;;8.43;;
1380;SDS011;684;48.342;10.096;2023-09-12T12:26:24;9.97;;;8.90;;
1380;SDS011;684;48.342;10.096;2023-09-12T12:28:51;9.90;;;8.77;;
1380;SDS011;684;48.342;10.096;2023-09-12T12:31:18;12.50;;;7.83;;
1380;SDS011;684;48.342;10.096;2023-09-12T12:33:48;11.00;;;8.50;;
1380;SDS011;684;48.342;10.096;2023-09-12T12:36:15;10.23;;;7.67;;
1380;SDS011;684;48.342;10.096;2023-09-12T12:38:42;8.30;;;7.50;;
1380;SDS011;684;48.342;10.096;2023-09-12T12:41:12;10.57;;;8.20;;
1380;SDS011;684;48.342;10.096;2023-09-12T12:43:40;11.10;;;7.90;;
1380;SDS011;684;48.342;10.096;2023-09-12T12:46:09;9.23;;;7.77;;
1380;SDS011;684;48.342;10.096;2023-09-12T12:48:38;8.50;;;7.00;;
1380;SDS011;684;48.342;10.096;2023-09-12T12:51:14;9.17;;;8.27;;
1380;SDS011;684;48.342;10.096;2023-09-12T12:53:43;9.57;;;8.37;;
1380;SDS011;684;48.342;10.096;2023-09-12T12:56:14;11.20;;;8.30;;
1380;SDS011;684;48.342;10.096;2023-09-12T12:58:46;9.70;;;8.57;;
1380;SDS011;684;48.342;10.096;2023-09-12T13:01:14;9.70;;;7.47;;
1380;SDS011;684;48.342;10.096;2023-09-12T13:03:42;10.30;;;7.20;;
1380;SDS011;684;48.342;10.096;2023-09-12T13:06:08;9.73;;;8.67;;
1380;SDS011;684;48.342;10.096;2023-09-12T13:08:41;10.93;;;7.43;;
1380;SDS011;684;48.342;10.096;2023-09-12T13:11:08;10.03;;;7.20;;
1380;SDS011;684;48.342;10.096;2023-09-12T13:13:36;9.40;;;7.27;;
1380;SDS011;684;48.342;10.096;2023-09-12T13:16:03;15.40;;;7.67;;
1380;SDS011;684;48.342;10.096;2023-09-12T13:18:30;8.60;;;7.67;;
1380;SDS011;684;48.342;10.096;2023-09-12T13:20:57;10.23;;;7.63;;
1380;SDS011;684;48.342;10.096;2023-09-12T13:23:24;7.80;;;6.83;;
1380;SDS011;684;48.342;10.096;2023-09-12T13:25:52;10.67;;;7.07;;
1380;SDS011;684;48.342;10.096;2023-09-12T13:28:19;8.90;;;7.63;;
1380;SDS011;684;48.342;10.096;2023-09-12T13:30:48;8.37;;;7.07;;
1380;SDS011;684;48.342;10.096;2023-09-12T13:33:15;12.90;;;7.87;;
1380;SDS011;684;48.342;10.096;2023-09-12T13:35:42;12.50;;;8.20;;
1380;SDS011;684;48.342;10.096;2023-09-12T13:38:08;9.97;;;7.57;;
1380;SDS011;684;48.342;10.096;2023-09-12T13:40:36;11.40;;;7.73;;
1380;SDS011;684;48.342;10.096;2023-09-12T13:43:05;10.20;;;8.17;;
1380;SDS011;684;48.342;10.096;2023-09-12T13:45:32;10.30;;;7.77;;
1380;SDS011;684;48.342;10.096;2023-09-12T13:47:59;13.13;;;8.10;;
1380;SDS011;684;48.342;10.096;2023-09-12T13:50:26;8.33;;;7.53;;
1380;SDS011;684;48.342;10.096;2023-09-12T13:52:53;10.90;;;8.57;;
1380;SDS011;684;48.342;10.096;2023-09-12T13:55:21;9.47;;;7.63;;
1380;SDS011;684;48.342;10.096;2023-09-12T13:57:47;9.30;;;8.07;;
1380;SDS011;684;48.342;10.096;2023-09-12T14:00:16;10.63;;;7.63;;
1380;SDS011;684;48.342;10.096;2023-09-12T14:02:42;11.60;;;7.90;;
1380;SDS011;684;48.342;10.096;2023-09-12T14:05:10;10.67;;;7.60;;
1380;SDS011;684;48.342;10.096;2023-09-12T14:07:37;9.10;;;7.60;;
1380;SDS011;684;48.342;10.096;2023-09-12T14:10:05;12.33;;;6.90;;
1380;SDS011;684;48.342;10.096;2023-09-12T14:12:32;8.33;;;7.30;;
1380;SDS011;684;48.342;10.096;2023-09-12T14:14:59;13.00;;;7.87;;
1380;SDS011;684;48.342;10.096;2023-09-12T14:17:29;9.40;;;7.30;;
1380;SDS011;684;48.342;10.096;2023-09-12T14:19:56;8.87;;;7.47;;
1380;SDS011;684;48.342;10.096;2023-09-12T14:22:22;8.57;;;7.03;;
1380;SDS011;684;48.342;10.096;2023-09-12T14:24:49;8.83;;;7.40;;
1380;SDS011;684;48.342;10.096;2023-09-12T14:27:16;9.37;;;7.43;;
1380;SDS011;684;48.342;10.096;2023-09-12T14:29:42;11.07;;;7.97;;
1380;SDS011;684;48.342;10.096;2023-09-12T14:32:11;8.73;;;7.83;;
1380;SDS011;684;48.342;10.096;2023-09-12T14:34:39;16.23;;;7.87;;
1380;SDS011;684;48.342;10.096;2023-09-12T14:37:06;10.10;;;7.70;;
1380;SDS011;684;48.342;10.096;2023-09-12T14:39:33;8.83;;;7.83;;
1380;SDS011;684;48.342;10.096;2023-09-12T14:41:59;9.13;;;8.03;;
1380;SDS011;684;48.342;10.096;2023-09-12T14:44:27;10.00;;;7.50;;
1380;SDS011;684;48.342;10.096;2023-09-12T14:46:57;8.50;;;7.57;;
1380;SDS011;684;48.342;10.096;2023-09-12T14:49:24;8.47;;;7.67;;
1380;SDS011;684;48.342;10.096;2023-09-12T14:51:52;8.73;;;7.77;;
1380;SDS011;684;48.342;10.096;2023-09-12T14:54:19;9.60;;;7.57;;
1380;SDS011;684;48.342;10.096;2023-09-12T14:56:47;9.60;;;7.33;;
1380;SDS011;684;48.342;10.096;2023-09-12T14:59:16;10.10;;;8.13;;
1380;SDS011;684;48.342;10.096;2023-09-12T15:01:43;10.83;;;8.53;;
1380;SDS011;684;48.342;10.096;2023-09-12T15:04:09;10.93;;;8.10;;
1380;SDS011;684;48.342;10.096;2023-09-12T15:06:37;9.50;;;7.50;;